Time;durP1;ratioP1;P1;durP2;ratioP2;P2;SDS_P1;SDS_P2;PMS_P1;PMS_P2;Temp;Humidity;BMP_temperature;BMP_pressure;BME280_temperature;BME280_humidity;BME280_pressure;Samples;Min_cycle;Max_cycle;Signal;HPM_P1;HPM_P2
2022/01/02 00:00:48;;;;;;;8.77;3.63;;;;;;;9.58;30.23;98410.84;5090882;28;20050;-66
2022/01/02 00:03:35;;;;;;;6.47;3.07;;;;;;;10.04;30.74;98412.31;5076587;28;20217;-68
2022/01/02 00:06:26;;;;;;;6.93;3.47;;;;;;;10.31;29.51;98418.00;5090508;28;20097;-69
2022/01/02 00:09:14;;;;;;;7.03;3.38;;;;;;;10.18;30.09;98411.50;5091433;28;20082;-67
2022/01/02 00:12:06;;;;;;;7.50;3.97;;;;;;;10.37;29.42;98425.19;5090464;28;20561;-67
2022/01/02 00:14:54;;;;;;;5.80;3.33;;;;;;;10.22;29.78;98420.75;5090469;28;20058;-70
2022/01/02 00:17:39;;;;;;;8.43;3.77;;;;;;;9.91;30.37;98429.91;5091397;28;20613;-68
2022/01/02 00:20:32;;;;;;;4.27;3.13;;;;;;;10.08;30.47;98428.72;5091148;28;20051;-68
2022/01/02 00:23:22;;;;;;;5.43;3.13;;;;;;;9.54;30.47;98409.59;5090325;28;20097;-69
2022/01/02 00:26:06;;;;;;;5.97;3.30;;;;;;;9.79;29.88;98432.16;5091328;28;20047;-68
2022/01/02 00:28:51;;;;;;;4.50;2.77;;;;;;;9.54;29.71;98435.25;5089714;28;20142;-69
2022/01/02 00:31:36;;;;;;;5.73;3.30;;;;;;;9.59;29.72;98444.31;5090144;28;20117;-68
2022/01/02 00:34:20;;;;;;;5.13;3.23;;;;;;;9.46;30.61;98444.09;5090801;28;20526;-69
2022/01/02 00:37:06;;;;;;;5.77;2.97;;;;;;;9.36;29.62;98416.22;5089543;28;20051;-68
2022/01/02 00:39:50;;;;;;;7.90;3.53;;;;;;;9.43;29.68;98448.94;5075528;28;20091;-66
2022/01/02 00:42:37;;;;;;;5.37;3.43;;;;;;;9.87;30.18;98436.59;5089726;28;20055;-68
2022/01/02 00:45:25;;;;;;;5.87;3.37;;;;;;;9.41;30.49;98445.66;5090179;28;20086;-69
2022/01/02 00:48:26;;;;;;;5.77;3.30;;;;;;;10.02;29.48;98454.09;5088670;28;20047;-69
2022/01/02 00:51:27;;;;;;;7.40;3.30;;;;;;;9.87;29.43;98457.78;5087182;28;20050;-66
2022/01/02 00:54:17;;;;;;;5.17;3.00;;;;;;;9.53;29.92;98466.22;5087380;28;20066;-69
2022/01/02 00:57:09;;;;;;;4.15;2.80;;;;;;;9.61;29.54;98449.44;5072939;28;20055;-68
2022/01/02 00:59:53;;;;;;;4.73;2.67;;;;;;;8.72;29.86;98467.84;5087618;28;20175;-68
2022/01/02 01:02:40;;;;;;;3.63;2.57;;;;;;;9.11;29.74;98463.28;5089273;28;20141;-67
2022/01/02 01:05:30;;;;;;;4.30;2.53;;;;;;;9.26;29.08;98473.91;5090891;28;20067;-67
2022/01/02 01:08:17;;;;;;;4.60;2.88;;;;;;;8.85;29.40;98467.28;5089257;28;20055;-66
2022/01/02 01:11:08;;;;;;;3.70;2.43;;;;;;;9.25;30.08;98486.38;5090476;28;20078;-67
2022/01/02 01:13:57;;;;;;;3.42;2.50;;;;;;;9.00;29.38;98442.50;5089338;28;20096;-68
2022/01/02 01:16:41;;;;;;;4.67;2.47;;;;;;;8.63;29.84;98474.19;5074508;28;20051;-67
2022/01/02 01:19:35;;;;;;;3.60;2.53;;;;;;;8.62;29.80;98488.44;5063403;28;20368;-67
2022/01/02 01:22:20;;;;;;;4.30;2.70;;;;;;;8.84;29.87;98461.16;5089008;28;20059;-66
2022/01/02 01:25:08;;;;;;;7.33;3.00;;;;;;;8.91;29.71;98487.75;5086973;28;20090;-69
2022/01/02 01:27:54;;;;;;;4.97;2.93;;;;;;;9.15;29.89;98492.91;5087352;28;20139;-69
2022/01/02 01:30:38;;;;;;;6.27;3.70;;;;;;;8.75;30.60;98488.66;5072997;28;20155;-66
2022/01/02 01:33:23;;;;;;;5.17;3.23;;;;;;;8.62;30.63;98499.00;5087094;28;20185;-70
2022/01/02 01:36:07;;;;;;;5.70;3.50;;;;;;;8.73;30.61;98495.97;5087916;28;20044;-68
2022/01/02 01:38:52;;;;;;;5.33;3.10;;;;;;;8.63;30.28;98491.88;5075223;28;20093;-67
2022/01/02 01:41:38;;;;;;;5.23;3.47;;;;;;;8.75;29.95;98499.25;5089196;28;20109;-65
2022/01/02 01:44:40;;;;;;;5.53;3.33;;;;;;;8.56;30.04;98484.63;5089417;28;20090;-70
2022/01/02 01:47:27;;;;;;;5.57;3.47;;;;;;;8.56;30.31;98491.78;5075544;28;20047;-67
2022/01/02 01:50:15;;;;;;;5.67;3.50;;;;;;;8.58;30.07;98489.75;5088711;28;20532;-67
2022/01/02 01:53:00;;;;;;;6.23;3.43;;;;;;;8.64;30.53;98490.91;5088907;28;20446;-67
2022/01/02 01:55:44;;;;;;;9.80;3.60;;;;;;;8.27;29.88;98465.13;5089769;28;20553;-67
2022/01/02 01:58:29;;;;;;;4.93;3.50;;;;;;;8.40;30.19;98503.25;5074740;28;20101;-68
2022/01/02 02:01:14;;;;;;;3.60;3.23;;;;;;;8.36;29.63;98506.41;5074458;28;20231;-67
2022/01/02 02:04:08;;;;;;;5.60;3.57;;;;;;;8.41;30.33;98481.06;5088830;28;20522;-67
2022/01/02 02:06:54;;;;;;;4.97;3.77;;;;;;;8.38;29.97;98507.88;5074628;28;20192;-67
2022/01/02 02:10:05;;;;;;;4.60;3.63;;;;;;;8.33;30.39;98512.84;5088331;28;20070;-65
2022/01/02 02:12:55;;;;;;;4.40;3.63;;;;;;;8.52;30.08;98499.22;5088642;28;20090;-66
2022/01/02 02:15:40;;;;;;;7.03;4.20;;;;;;;8.33;29.53;98507.56;5074539;28;20568;-65
2022/01/02 02:18:25;;;;;;;5.83;3.93;;;;;;;8.22;29.95;98501.81;5074304;28;20530;-70
2022/01/02 02:21:09;;;;;;;5.17;3.67;;;;;;;8.21;29.55;98498.31;5088592;28;20051;-65
2022/01/02 02:23:53;;;;;;;5.27;3.73;;;;;;;8.36;30.16;98509.88;5089819;28;20051;-66
2022/01/02 02:26:38;;;;;;;5.53;4.20;;;;;;;8.29;30.19;98514.19;5089749;28;20051;-66
2022/01/02 02:29:23;;;;;;;5.60;4.00;;;;;;;8.25;29.93;98512.06;5088507;28;20082;-64
2022/01/02 02:32:07;;;;;;;6.17;4.30;;;;;;;8.18;29.75;98511.88;5088686;28;20051;-65
2022/01/02 02:34:52;;;;;;;7.03;4.37;;;;;;;8.37;30.01;98526.56;5060309;28;20047;-65
2022/01/02 02:37:42;;;;;;;5.20;4.23;;;;;;;8.95;30.34;98526.13;5089489;28;20055;-64
2022/01/02 02:40:30;;;;;;;6.00;4.10;;;;;;;8.59;29.76;98550.44;5088349;28;20135;-65
2022/01/02 02:49:17;;;;;;;6.60;3.70;;;;;;;8.26;30.43;98526.94;5092070;28;20055;-65
2022/01/02 02:52:08;;;;;;;5.03;3.70;;;;;;;8.15;30.21;98511.38;5092878;28;20063;-65
2022/01/02 02:54:55;;;;;;;5.47;3.80;;;;;;;8.33;30.79;98541.94;5091891;28;20164;-65
2022/01/02 02:57:41;;;;;;;5.17;4.03;;;;;;;8.30;29.47;98567.94;5091506;28;20055;-65
2022/01/02 03:00:26;;;;;;;5.90;4.00;;;;;;;8.32;29.83;98565.94;5077860;28;20043;-65
2022/01/02 03:03:10;;;;;;;7.47;3.97;;;;;;;8.28;30.17;98568.09;5077317;28;20067;-64
2022/01/02 03:05:55;;;;;;;7.33;4.13;;;;;;;8.04;30.06;98548.78;5093040;28;20055;-65
2022/01/02 03:08:41;;;;;;;7.43;4.23;;;;;;;8.60;30.54;98580.41;5077072;28;20411;-66
2022/01/02 03:11:26;;;;;;;5.63;3.97;;;;;;;7.72;29.83;98485.41;5077452;28;20085;-65
2022/01/02 03:14:13;;;;;;;6.90;4.30;;;;;;;8.64;30.66;98584.38;5091636;28;20062;-65
2022/01/02 03:16:59;;;;;;;7.43;4.23;;;;;;;8.09;29.57;98549.09;5077352;28;20051;-64
2022/01/02 03:19:45;;;;;;;5.67;4.13;;;;;;;8.16;30.87;98550.88;5077245;28;20518;-65
2022/01/02 03:22:31;;;;;;;5.10;3.70;;;;;;;8.35;31.00;98590.22;5090897;28;20054;-67
2022/01/02 03:25:16;;;;;;;7.70;4.43;;;;;;;8.08;30.13;98547.44;5077080;28;20530;-66
2022/01/02 03:28:01;;;;;;;5.90;4.03;;;;;;;8.43;29.70;98599.97;5091204;28;20051;-66
2022/01/02 03:30:46;;;;;;;6.03;3.90;;;;;;;8.28;29.84;98602.50;5090852;28;20105;-66
2022/01/02 03:33:30;;;;;;;5.77;4.13;;;;;;;8.29;29.92;98613.88;5091810;28;20593;-66
2022/01/02 03:36:15;;;;;;;6.67;3.83;;;;;;;8.12;30.08;98586.59;5076788;28;20091;-66
2022/01/02 03:39:03;;;;;;;7.37;3.73;;;;;;;8.63;29.94;98616.25;5091012;28;20058;-64
2022/01/02 03:41:48;;;;;;;5.30;3.77;;;;;;;8.24;29.73;98624.97;5091175;28;20220;-65
2022/01/02 03:44:32;;;;;;;6.43;3.97;;;;;;;8.24;30.04;98622.31;5090761;28;20139;-66
2022/01/02 03:47:19;;;;;;;5.23;3.43;;;;;;;8.24;29.54;98632.91;5090723;28;20517;-65
2022/01/02 03:50:04;;;;;;;5.30;3.67;;;;;;;8.35;30.08;98629.06;5090727;28;20418;-64
2022/01/02 03:52:49;;;;;;;7.37;3.50;;;;;;;8.02;30.27;98614.22;5090945;28;20046;-68
2022/01/02 03:55:34;;;;;;;6.57;3.70;;;;;;;8.44;29.69;98636.03;5075681;28;20097;-64
2022/01/02 03:58:18;;;;;;;4.83;3.67;;;;;;;8.07;29.85;98633.06;5091562;28;20051;-65
2022/01/02 04:01:03;;;;;;;6.13;3.60;;;;;;;8.19;29.98;98637.84;5091919;28;20465;-64
2022/01/02 04:03:47;;;;;;;6.20;3.67;;;;;;;8.17;29.88;98646.94;5090847;28;20093;-64
2022/01/02 04:06:32;;;;;;;8.73;3.83;;;;;;;8.04;29.65;98649.25;5090331;28;20055;-66
2022/01/02 04:09:16;;;;;;;7.17;3.20;;;;;;;8.07;29.59;98647.09;5090311;28;20135;-66
2022/01/02 04:12:00;;;;;;;3.90;3.47;;;;;;;7.69;29.99;98628.41;5076160;28;20139;-64
2022/01/02 04:14:49;;;;;;;6.03;3.43;;;;;;;7.95;30.57;98645.78;5090405;28;20169;-65
2022/01/02 04:17:34;;;;;;;5.37;3.43;;;;;;;8.08;29.64;98637.34;5090159;28;20188;-65
2022/01/02 04:20:36;;;;;;;6.23;3.57;;;;;;;8.05;30.71;98641.16;5076138;28;20499;-65
2022/01/02 04:23:21;;;;;;;5.80;3.53;;;;;;;7.87;29.26;98627.28;5089871;28;20042;-65
2022/01/02 04:26:06;;;;;;;7.40;3.43;;;;;;;7.91;30.20;98635.72;5090072;28;20074;-66
2022/01/02 04:28:50;;;;;;;5.10;3.37;;;;;;;7.96;29.65;98673.91;5089970;28;20113;-66
2022/01/02 04:31:35;;;;;;;5.60;3.50;;;;;;;7.73;29.57;98656.19;5075757;28;20178;-66
2022/01/02 04:34:19;;;;;;;4.63;3.33;;;;;;;7.94;29.50;98667.94;5091028;28;20058;-65
2022/01/02 04:37:05;;;;;;;5.93;3.13;;;;;;;7.89;29.84;98670.25;5076120;28;20043;-65
2022/01/02 04:39:49;;;;;;;5.70;3.33;;;;;;;8.01;29.70;98676.03;5075527;28;20109;-64
2022/01/02 04:42:34;;;;;;;6.53;3.30;;;;;;;7.86;30.20;98675.00;5089588;28;20449;-65
2022/01/02 04:45:19;;;;;;;5.03;3.03;;;;;;;8.04;30.88;98681.81;5089857;28;20070;-65
2022/01/02 04:48:03;;;;;;;4.80;3.17;;;;;;;7.87;29.41;98676.69;5091024;28;20455;-68
2022/01/02 04:50:49;;;;;;;7.03;2.90;;;;;;;8.03;28.98;98696.03;5074880;28;20055;-65
2022/01/02 04:53:36;;;;;;;5.13;2.50;;;;;;;7.69;29.44;98679.47;5089836;28;20415;-68
2022/01/02 04:56:20;;;;;;;4.87;2.83;;;;;;;7.64;29.36;98689.69;5089595;28;20051;-67
2022/01/02 04:59:05;;;;;;;7.77;3.10;;;;;;;7.51;28.96;98675.31;5089411;28;20473;-66
2022/01/02 05:01:49;;;;;;;9.87;2.73;;;;;;;7.48;29.07;98678.28;5089401;28;20054;-64
2022/01/02 05:04:34;;;;;;;3.33;2.77;;;;;;;7.22;29.28;98678.38;5090548;28;20097;-65
2022/01/02 05:07:18;;;;;;;4.77;2.60;;;;;;;7.08;29.34;98665.78;5074168;28;20070;-65
2022/01/02 05:10:04;;;;;;;8.13;2.67;;;;;;;7.47;29.00;98682.75;5089088;28;20051;-66
2022/01/02 05:12:49;;;;;;;4.90;2.80;;;;;;;7.06;29.16;98685.41;5075030;28;20059;-66
2022/01/02 05:15:34;;;;;;;6.37;3.20;;;;;;;7.09;29.66;98696.47;5088734;28;20054;-66
2022/01/02 05:18:19;;;;;;;4.37;3.00;;;;;;;7.15;28.94;98709.03;5088827;28;20104;-63
2022/01/02 05:21:04;;;;;;;5.40;2.70;;;;;;;6.63;29.39;98671.34;5089286;28;20074;-64
2022/01/02 05:23:48;;;;;;;5.37;2.67;;;;;;;6.79;29.25;98708.38;5089900;28;20134;-65
2022/01/02 05:26:32;;;;;;;5.73;3.03;;;;;;;6.69;29.32;98712.09;5089258;28;20059;-66
2022/01/02 05:29:17;;;;;;;4.47;2.93;;;;;;;6.71;28.89;98699.59;5074681;28;20078;-65
2022/01/02 05:32:03;;;;;;;3.63;2.57;;;;;;;6.58;28.80;98710.56;5089214;28;20356;-68
2022/01/02 05:34:47;;;;;;;5.27;2.90;;;;;;;6.59;29.24;98712.22;5089821;28;20063;-65
2022/01/02 05:37:32;;;;;;;3.70;2.77;;;;;;;6.54;29.26;98687.28;5075032;28;20067;-65
2022/01/02 05:40:16;;;;;;;4.97;2.93;;;;;;;6.79;30.06;98708.38;5088716;28;20411;-66
2022/01/02 05:43:02;;;;;;;3.97;2.80;;;;;;;7.37;29.82;98724.31;5088822;28;20534;-66
2022/01/02 05:45:47;;;;;;;8.57;3.40;;;;;;;7.14;29.69;98740.88;5088699;28;20074;-65
2022/01/02 05:48:33;;;;;;;5.20;3.60;;;;;;;7.36;29.62;98742.97;5089005;28;20105;-66
2022/01/02 05:51:17;;;;;;;5.77;3.50;;;;;;;7.26;29.37;98740.44;5088904;28;20054;-65
2022/01/02 05:54:03;;;;;;;5.27;3.13;;;;;;;7.42;30.34;98740.50;5089170;28;20051;-65
2022/01/02 05:56:47;;;;;;;5.80;3.30;;;;;;;7.37;29.83;98756.00;5074254;28;20104;-66
2022/01/02 05:59:33;;;;;;;10.67;3.50;;;;;;;7.30;29.98;98740.97;5088423;28;20055;-66
2022/01/02 06:02:17;;;;;;;4.23;2.97;;;;;;;7.32;29.66;98757.47;5089840;28;20458;-65
2022/01/02 06:05:03;;;;;;;4.63;2.93;;;;;;;7.60;29.63;98764.16;5090059;28;20059;-65
2022/01/02 06:07:49;;;;;;;5.57;2.83;;;;;;;7.00;29.31;98758.13;5088469;28;20074;-65
2022/01/02 06:10:33;;;;;;;7.77;3.10;;;;;;;7.23;28.90;98771.59;5074406;28;20158;-65
2022/01/02 06:13:18;;;;;;;3.67;2.53;;;;;;;7.20;29.04;98756.06;5089929;28;20181;-65
2022/01/02 06:16:04;;;;;;;2.87;2.27;;;;;;;7.20;28.47;98767.47;5088491;28;20054;-64
2022/01/02 06:18:51;;;;;;;4.10;2.13;;;;;;;6.84;28.27;98743.03;5076144;28;20051;-68
2022/01/02 06:21:36;;;;;;;5.50;2.90;;;;;;;6.95;28.62;98743.75;5092893;28;20146;-68
2022/01/02 06:24:20;;;;;;;6.17;2.80;;;;;;;6.99;29.38;98753.00;5064162;28;20051;-65
2022/01/02 06:27:05;;;;;;;7.03;2.93;;;;;;;7.16;29.44;98775.88;5092583;28;20054;-67
2022/01/02 06:29:49;;;;;;;5.10;2.90;;;;;;;7.32;28.69;98778.59;5091786;28;20055;-65
2022/01/02 06:32:34;;;;;;;4.70;2.50;;;;;;;7.17;28.95;98782.78;5092508;28;20090;-65
2022/01/02 06:35:18;;;;;;;6.03;2.80;;;;;;;7.15;29.00;98785.59;5064052;28;20081;-65
2022/01/02 06:38:15;;;;;;;4.77;2.70;;;;;;;7.87;28.50;98791.16;5093584;28;20046;-64
2022/01/02 06:41:03;;;;;;;4.30;2.90;;;;;;;7.40;29.39;98786.53;5092281;28;20059;-65
2022/01/02 06:43:52;;;;;;;3.97;2.73;;;;;;;7.15;29.31;98782.16;5077736;28;20131;-65
2022/01/02 06:46:38;;;;;;;6.53;2.60;;;;;;;7.09;28.52;98791.50;5092161;28;20408;-66
2022/01/02 06:49:22;;;;;;;3.17;2.40;;;;;;;7.00;28.91;98781.88;5092931;28;20047;-65
2022/01/02 06:52:09;;;;;;;6.43;2.53;;;;;;;7.10;28.75;98793.19;5092261;28;20071;-65
2022/01/02 06:54:54;;;;;;;4.43;2.60;;;;;;;7.15;29.21;98798.81;5077729;28;20097;-67
2022/01/02 06:57:40;;;;;;;7.17;2.23;;;;;;;6.81;28.38;98790.03;5092215;28;20079;-65
2022/01/02 07:00:25;;;;;;;3.63;2.40;;;;;;;6.96;29.55;98787.63;5092788;28;20185;-66
2022/01/02 07:03:10;;;;;;;3.93;2.60;;;;;;;6.85;29.16;98765.81;5092810;28;20097;-66
2022/01/02 07:05:55;;;;;;;6.03;2.70;;;;;;;7.11;28.78;98804.56;5111673;28;20196;-67
2022/01/02 07:08:39;;;;;;;2.90;2.33;;;;;;;6.96;28.60;98783.19;5111948;28;20054;-66
2022/01/02 07:11:24;;;;;;;2.90;2.27;;;;;;;7.18;28.73;98816.16;5111795;28;20138;-68
2022/01/02 07:14:08;;;;;;;6.20;2.90;;;;;;;7.10;29.11;98822.22;5113218;28;20109;-65
2022/01/02 07:16:57;;;;;;;2.43;2.23;;;;;;;7.51;29.06;98783.63;5111702;28;20077;-67
2022/01/02 07:19:41;;;;;;;4.87;2.33;;;;;;;7.04;28.10;98830.78;5113264;28;20051;-65
2022/01/02 07:22:26;;;;;;;4.83;2.60;;;;;;;6.71;29.02;98770.81;5110699;28;20132;-65
2022/01/02 07:25:11;;;;;;;2.83;2.10;;;;;;;7.19;28.69;98831.00;5111901;28;20051;-65
2022/01/02 07:27:55;;;;;;;4.37;2.23;;;;;;;7.06;28.76;98835.91;5097387;28;20130;-65
2022/01/02 07:30:40;;;;;;;4.17;2.43;;;;;;;7.11;28.73;98852.06;5109107;28;20043;-67
2022/01/02 07:33:24;;;;;;;4.13;2.50;;;;;;;7.06;28.57;98851.75;5111606;28;20074;-66
2022/01/02 07:36:09;;;;;;;5.60;2.57;;;;;;;7.05;29.24;98853.53;5111651;28;20084;-64
2022/01/02 07:38:53;;;;;;;3.73;2.57;;;;;;;6.99;29.03;98825.13;5112357;28;20058;-66
2022/01/02 07:41:38;;;;;;;3.87;2.30;;;;;;;7.09;28.82;98849.59;5112591;28;20043;-67
2022/01/02 07:44:22;;;;;;;6.47;2.93;;;;;;;6.99;29.16;98848.88;5112898;28;20464;-65
2022/01/02 07:47:07;;;;;;;6.03;2.77;;;;;;;7.24;29.51;98852.50;5112248;28;20119;-66
2022/01/02 07:49:51;;;;;;;3.30;2.43;;;;;;;7.12;29.55;98812.31;5111639;28;20102;-65
2022/01/02 07:52:35;;;;;;;5.93;2.60;;;;;;;7.23;29.10;98827.91;5110913;28;20207;-66
2022/01/02 07:55:20;;;;;;;7.50;2.90;;;;;;;7.48;28.95;98844.69;5096104;28;20051;-67
2022/01/02 07:58:04;;;;;;;5.60;2.77;;;;;;;7.49;29.52;98854.31;5096470;28;20055;-67
2022/01/02 08:00:50;;;;;;;5.37;2.77;;;;;;;7.51;29.05;98839.94;5111628;28;20104;-66
2022/01/02 08:03:34;;;;;;;5.57;2.63;;;;;;;7.38;28.99;98855.38;5096473;28;20104;-64
2022/01/02 08:06:18;;;;;;;6.60;3.43;;;;;;;7.36;28.76;98867.09;5096481;28;20051;-67
2022/01/02 08:09:03;;;;;;;5.97;3.13;;;;;;;7.09;28.11;98865.44;5111464;28;20392;-64
2022/01/02 08:11:47;;;;;;;5.37;3.07;;;;;;;7.18;29.27;98838.09;5095913;28;20153;-72
2022/01/02 08:14:32;;;;;;;5.63;3.00;;;;;;;7.54;28.46;98857.28;5111586;28;20043;-68
2022/01/02 08:17:16;;;;;;;4.40;3.00;;;;;;;7.68;29.31;98849.59;5111618;28;20062;-75
2022/01/02 08:20:01;;;;;;;6.07;2.80;;;;;;;7.67;28.41;98866.41;5108599;28;20100;-72
2022/01/02 08:22:47;;;;;;;7.17;2.60;;;;;;;7.87;28.40;98873.13;5108337;28;20055;-70
2022/01/02 08:25:34;;;;;;;5.97;2.77;;;;;;;8.14;28.39;98883.47;5108704;28;20054;-77
2022/01/02 08:28:19;;;;;;;3.87;2.53;;;;;;;8.33;28.96;98887.69;5081824;28;20051;-72
2022/01/02 08:31:06;;;;;;;4.53;2.90;;;;;;;8.53;28.00;98897.78;5098305;28;20054;-76
2022/01/02 08:33:50;;;;;;;3.70;2.40;;;;;;;8.78;27.57;98888.06;5101332;28;20105;-73
2022/01/02 08:36:37;;;;;;;3.60;2.50;;;;;;;8.89;27.23;98886.94;5099320;28;20043;-74
2022/01/02 08:39:21;;;;;;;4.33;2.70;;;;;;;8.96;27.32;98887.91;5086187;28;20112;-69
2022/01/02 08:42:06;;;;;;;5.13;2.80;;;;;;;8.98;27.55;98870.03;5100012;28;20054;-72
2022/01/02 08:44:50;;;;;;;4.13;2.87;;;;;;;9.09;28.08;98881.09;5110415;28;20090;-66
2022/01/02 08:47:36;;;;;;;4.20;2.53;;;;;;;9.35;27.41;98899.47;5096051;28;20552;-66
2022/01/02 08:50:20;;;;;;;4.80;2.90;;;;;;;8.82;26.55;98910.59;5095793;28;20516;-67
2022/01/02 08:53:05;;;;;;;4.70;2.70;;;;;;;8.71;26.97;98897.66;5095452;28;20096;-68
2022/01/02 08:55:49;;;;;;;2.80;2.40;;;;;;;8.57;26.92;98901.78;5110010;28;20138;-70
2022/01/02 08:58:34;;;;;;;4.53;2.80;;;;;;;8.57;27.25;98896.50;5110044;28;20191;-67
2022/01/02 09:01:18;;;;;;;4.30;2.60;;;;;;;8.59;27.59;98889.19;5095491;28;20062;-69
2022/01/02 09:04:02;;;;;;;4.17;2.90;;;;;;;8.44;28.17;98863.56;5086372;28;20167;-70
2022/01/02 09:06:47;;;;;;;7.47;3.40;;;;;;;8.64;26.81;98890.53;5093048;28;20079;-70
2022/01/02 09:09:34;;;;;;;4.07;2.77;;;;;;;8.64;28.05;98856.97;5097578;28;20138;-71
2022/01/02 09:12:20;;;;;;;5.67;2.90;;;;;;;8.80;26.93;98866.72;5104524;28;20047;-67
2022/01/02 09:15:05;;;;;;;5.50;2.97;;;;;;;9.07;27.88;98884.94;5097129;28;20079;-66
2022/01/02 09:17:49;;;;;;;5.43;3.23;;;;;;;8.95;27.29;98873.81;5097443;28;20062;-67
2022/01/02 09:20:34;;;;;;;7.30;3.10;;;;;;;8.89;27.05;98863.09;5083691;28;20556;-62
2022/01/02 09:23:18;;;;;;;5.43;3.10;;;;;;;8.73;27.65;98871.03;5097512;28;20041;-62
2022/01/02 09:26:02;;;;;;;9.77;3.40;;;;;;;8.65;27.31;98861.25;5097628;28;20074;-61
2022/01/02 09:28:47;;;;;;;8.23;3.57;;;;;;;8.64;27.94;98867.56;5097603;28;20116;-64
2022/01/02 09:31:31;;;;;;;4.40;3.27;;;;;;;8.49;26.91;98862.06;5097495;28;20055;-64
2022/01/02 09:34:16;;;;;;;5.53;2.90;;;;;;;8.38;27.85;98865.03;5097798;28;20105;-62
2022/01/02 09:37:01;;;;;;;5.03;3.20;;;;;;;8.57;26.48;98874.47;5095654;28;20164;-61
2022/01/02 09:39:45;;;;;;;5.30;2.90;;;;;;;8.06;26.71;98830.56;5098361;28;20112;-62
2022/01/02 09:42:29;;;;;;;5.63;2.60;;;;;;;8.13;26.99;98851.91;5093915;28;20047;-63
2022/01/02 09:45:14;;;;;;;4.20;2.80;;;;;;;7.94;26.88;98815.16;5091576;28;20070;-63
2022/01/02 09:48:00;;;;;;;9.23;3.10;;;;;;;8.18;27.08;98853.06;5094463;28;20522;-63
2022/01/02 09:50:47;;;;;;;8.27;3.07;;;;;;;8.15;27.62;98860.47;5095499;28;20051;-61
2022/01/02 09:53:31;;;;;;;7.03;2.63;;;;;;;7.90;27.65;98832.31;5097797;28;20067;-63
2022/01/02 09:55:56;;;;;;;4.60;2.60;;;;;;;8.11;27.73;98854.69;5074415;28;20032;-62
2022/01/02 09:58:22;;;;;;;3.43;2.50;;;;;;;8.07;27.69;98852.53;5088617;28;20436;-61
2022/01/02 10:00:48;;;;;;;5.23;3.00;;;;;;;8.12;27.46;98847.56;5088884;28;20061;-60
2022/01/02 10:03:14;;;;;;;3.87;2.80;;;;;;;8.28;27.64;98855.59;5090592;28;20040;-62
2022/01/02 10:05:59;;;;;;;4.70;2.80;;;;;;;8.87;26.74;98871.22;5087556;28;20032;-62
2022/01/02 10:08:27;;;;;;;5.20;3.00;;;;;;;8.51;27.98;98865.41;5086276;28;20099;-63
2022/01/02 10:11:07;;;;;;;3.50;2.70;;;;;;;8.57;27.15;98871.84;5090311;28;20051;-61
2022/01/02 10:13:37;;;;;;;5.73;2.47;;;;;;;8.47;26.76;98881.75;5105800;28;20069;-62
2022/01/02 10:16:03;;;;;;;7.63;2.63;;;;;;;7.84;27.74;98877.91;5111083;28;20047;-61
2022/01/02 10:18:29;;;;;;;3.80;2.90;;;;;;;7.99;27.71;98878.94;5092454;28;20605;-63
2022/01/02 10:20:58;;;;;;;3.63;2.60;;;;;;;8.22;27.14;98882.66;5111044;28;20766;-62
2022/01/02 10:23:25;;;;;;;6.77;3.00;;;;;;;7.69;27.01;98885.59;5108952;28;20044;-63
2022/01/02 10:25:55;;;;;;;4.57;2.87;;;;;;;7.66;27.55;98891.19;5109631;28;20040;-64
2022/01/02 10:28:33;;;;;;;4.10;2.40;;;;;;;8.28;26.95;98888.19;5110358;28;20099;-62
2022/01/02 10:31:11;;;;;;;9.07;2.77;;;;;;;7.64;27.01;98895.81;5109167;28;20069;-64
2022/01/02 10:33:52;;;;;;;5.90;3.37;;;;;;;8.02;27.05;98903.28;5109531;28;20070;-64
2022/01/02 10:36:40;;;;;;;4.73;2.30;;;;;;;8.08;26.79;98897.34;5108697;28;20503;-65
2022/01/02 10:39:07;;;;;;;5.90;3.53;;;;;;;7.87;27.18;98901.38;5108041;28;20534;-64
2022/01/02 10:41:41;;;;;;;5.07;3.00;;;;;;;8.06;28.13;98895.81;5108915;28;20142;-64
2022/01/02 10:44:20;;;;;;;3.67;2.27;;;;;;;7.95;26.73;98914.66;5106346;28;20066;-65
2022/01/02 10:47:08;;;;;;;3.10;2.50;;;;;;;8.01;27.73;98920.09;5110466;28;20048;-64
2022/01/02 10:49:49;;;;;;;3.50;2.50;;;;;;;7.93;27.36;98912.13;5109761;28;20075;-64
2022/01/02 10:52:36;;;;;;;10.03;2.73;;;;;;;7.97;27.10;98912.66;5109935;28;20043;-64
2022/01/02 10:55:25;;;;;;;3.13;2.47;;;;;;;8.25;27.80;98920.25;5110142;28;20043;-65
2022/01/02 10:57:53;;;;;;;5.50;2.80;;;;;;;7.88;27.17;98917.09;5097966;28;20043;-64
2022/01/02 11:00:21;;;;;;;3.07;2.43;;;;;;;7.76;26.86;98925.44;5107072;28;20043;-65
2022/01/02 11:02:47;;;;;;;10.30;3.20;;;;;;;7.57;28.03;98925.66;5110652;28;20116;-64
2022/01/02 11:05:19;;;;;;;4.07;2.77;;;;;;;7.81;27.15;98886.97;5090674;28;20040;-65
2022/01/02 11:07:54;;;;;;;4.00;2.70;;;;;;;7.86;27.26;98932.25;5110151;28;20043;-64
2022/01/02 11:10:21;;;;;;;4.07;2.90;;;;;;;7.93;27.31;98937.75;5108560;28;20059;-65
2022/01/02 11:12:48;;;;;;;5.70;2.90;;;;;;;7.92;27.03;98938.72;5092376;28;20074;-65
2022/01/02 11:15:19;;;;;;;2.50;2.23;;;;;;;8.06;27.34;98938.13;5109968;28;20040;-64
2022/01/02 11:17:45;;;;;;;;;;;;;;;8.39;26.53;98943.41;5109244;28;20154;-64
2022/01/02 11:20:19;;;;;;;9.63;4.57;;;;;;;8.09;27.04;98940.44;5108326;28;19919;-61
2022/01/02 11:23:05;;;;;;;3.97;2.67;;;;;;;7.95;28.20;98917.28;5110190;28;20096;-62
2022/01/02 11:25:44;;;;;;;4.23;2.50;;;;;;;7.95;27.34;98941.09;5091460;28;20402;-61
2022/01/02 11:28:17;;;;;;;3.33;2.47;;;;;;;7.98;28.01;98928.34;5109716;28;20048;-62
2022/01/02 11:30:43;;;;;;;3.30;2.80;;;;;;;7.31;27.95;98932.75;5108119;28;20100;-62
2022/01/02 11:33:19;;;;;;;3.67;2.87;;;;;;;7.81;27.73;98925.81;5109599;28;20089;-60
2022/01/02 11:36:06;;;;;;;6.80;2.67;;;;;;;7.95;27.39;98930.50;5108663;28;20035;-62
2022/01/02 11:38:43;;;;;;;7.27;2.80;;;;;;;8.04;27.25;98919.78;5108121;28;20039;-60
2022/01/02 11:41:09;;;;;;;4.27;2.70;;;;;;;7.39;27.21;98911.69;5109320;28;20039;-60
2022/01/02 11:43:35;;;;;;;6.27;2.57;;;;;;;7.24;27.36;98921.16;5109068;28;20491;-60
2022/01/02 11:46:24;;;;;;;4.07;2.73;;;;;;;8.03;27.89;98912.00;5107961;28;20047;-61
2022/01/02 11:49:05;;;;;;;7.03;3.97;;;;;;;7.91;27.44;98906.19;5108152;28;20043;-65
2022/01/02 11:52:05;;;;;;;5.43;3.30;;;;;;;8.02;26.87;98913.84;5109230;28;20036;-65
2022/01/02 11:54:40;;;;;;;3.87;2.97;;;;;;;7.22;28.43;98916.03;5107964;28;20078;-65
2022/01/02 11:57:14;;;;;;;3.20;2.60;;;;;;;7.87;27.51;98911.97;5108942;28;20077;-66
2022/01/02 11:59:43;;;;;;;2.90;2.50;;;;;;;7.24;27.52;98924.66;5089166;28;20936;-65
2022/01/02 12:02:18;;;;;;;3.83;2.30;;;;;;;7.97;27.04;98939.09;5108674;28;20089;-66
2022/01/02 12:07:37;;;;;;;6.00;2.70;;;;;;;7.96;27.09;98943.56;5108205;28;20095;-63
2022/01/02 12:10:22;;;;;;;4.60;2.70;;;;;;;8.04;27.06;98948.06;5108760;28;20078;-64
2022/01/02 12:13:00;;;;;;;4.60;2.60;;;;;;;7.89;27.35;98952.25;5106412;28;20040;-64
2022/01/02 12:15:32;;;;;;;4.73;3.03;;;;;;;7.86;27.18;98957.88;5072551;28;20044;-65
2022/01/02 12:18:14;;;;;;;5.97;3.00;;;;;;;7.80;27.52;98954.03;5090756;28;20131;-65
2022/01/02 12:20:53;;;;;;;3.50;2.37;;;;;;;7.90;27.29;98960.03;5072473;28;20047;-64
2022/01/02 12:23:30;;;;;;;4.87;2.77;;;;;;;7.74;27.12;98959.97;5089495;28;20531;-64
2022/01/02 12:25:57;;;;;;;7.87;2.80;;;;;;;7.38;26.89;98954.94;5089602;28;20052;-64
2022/01/02 12:28:23;;;;;;;3.27;2.57;;;;;;;6.77;27.89;98954.91;5090573;28;20058;-65
2022/01/02 12:30:51;;;;;;;4.10;2.50;;;;;;;7.33;27.47;98952.75;5072843;28;20067;-63
2022/01/02 12:33:24;;;;;;;5.63;3.13;;;;;;;7.57;26.65;98960.00;5056187;28;20044;-65
2022/01/02 12:35:50;;;;;;;5.77;3.33;;;;;;;6.93;27.83;98962.16;5095164;28;20040;-65
2022/01/02 12:38:16;;;;;;;5.13;3.10;;;;;;;7.02;29.00;98953.31;5101519;28;20123;-63
2022/01/02 12:40:42;;;;;;;5.73;3.40;;;;;;;7.09;27.87;98970.22;5088006;28;20047;-65
2022/01/02 12:43:09;;;;;;;5.57;3.07;;;;;;;7.26;28.40;98967.56;5071692;28;20407;-64
2022/01/02 12:45:35;;;;;;;4.27;3.03;;;;;;;7.15;27.74;98964.34;5071867;28;20131;-66
2022/01/02 12:48:01;;;;;;;6.20;2.80;;;;;;;6.65;27.42;98927.09;5072528;28;20044;-65
2022/01/02 12:50:29;;;;;;;4.27;2.83;;;;;;;7.30;28.05;98965.44;5090360;28;20413;-66
2022/01/02 12:52:56;;;;;;;7.27;3.67;;;;;;;7.29;28.41;98975.16;5089171;28;20404;-65
2022/01/02 12:55:23;;;;;;;6.37;3.73;;;;;;;7.26;27.86;98972.03;5086521;28;20063;-64
2022/01/02 12:57:48;;;;;;;5.40;2.93;;;;;;;7.05;28.52;98976.78;5069614;28;20489;-64
2022/01/02 13:00:14;;;;;;;6.73;2.77;;;;;;;7.19;28.33;98963.88;5086117;28;20036;-64
2022/01/02 13:02:40;;;;;;;3.70;2.87;;;;;;;6.97;28.34;98984.63;5086593;28;20575;-65